メインページ
METAR-TAF:

METAR-TAF

空港 :

パルマ・デ・マリョルカ, スペイン

パルマ・デ・マヨルカ空港

緯度: 39-33N, 経度: 002-44E, 海抜: 4m

現時点の気象観測

当レポートは12分前の01:30(UTC)に作成
変向風 1kt
気温 9°C
湿度 93%
気圧 1026 hPa
視程10km以上
高度2500ftの雲はほとんどない
高度4500ftの千切れ雲あり

METAR: LEPA 180130Z VRB01KT 9999 FEW025 BKN045 09/08 Q1026 NOSIG

時間: 02:42 (01:42 UTC)

予報

当レポートは2時間42分前の23:00(UTC)に作成
予報は18日の 00時(UTC)から 18日の 24時(UTC)まで有効
変向風 3kt
視程10km以上
高度3000ftの千切れ雲あり
18日の 00時(UTC)から 18日の 06時(UTC)まで一時的に
北東の風 7kt
確率 30% :
18日の 00時(UTC)から 18日の 10時(UTC)まで一時的に
高度2000ftの千切れ雲あり
18日の 11時(UTC)から 18日の 18時(UTC)まで一時的に
南西の風 8kt

TAF: LEPA 172300Z 1800/1824 VRB03KT 9999 BKN030 TX15/1812Z TN08/1806Z TEMPO 1800/1806 05007KT PROB30 TEMPO 1800/1810 RA BKN020 TEMPO 1811/1818 22008KT

4,000以上の空港の気象観測と天気予報(METAR報とTAF報)

利用可能な観測所は地図上に黄色い丸と赤い丸で示す。

丸の上にカーソルを重ねると観測所名を参照できる。

次にクリックすると気象観測と天気予報を参照できる。

マップの切り替え:黒色「×」印の緑ボタンをクリックして拡大、「-」印の緑ボタンをクリックして縮小、緑色の三角印をクリックして隣りの地図に切り替え


METAR-TAF: